sensor_id;sensor_type;location;lat;lon;timestamp;P1;durP1;ratioP1;P2;durP2;ratioP2
10242;SDS011;5166;48.292;16.418;2022-07-23T00:01:00;25.77;;;24.08;;
10242;SDS011;5166;48.292;16.418;2022-07-23T00:03:04;27.73;;;25.70;;
10242;SDS011;5166;48.292;16.418;2022-07-23T00:05:08;26.58;;;24.70;;
10242;SDS011;5166;48.292;16.418;2022-07-23T00:07:11;26.45;;;24.65;;
10242;SDS011;5166;48.292;16.418;2022-07-23T00:09:13;25.25;;;23.65;;
10242;SDS011;5166;48.292;16.418;2022-07-23T00:11:16;25.02;;;22.90;;
10242;SDS011;5166;48.292;16.418;2022-07-23T00:13:19;27.20;;;25.20;;
10242;SDS011;5166;48.292;16.418;2022-07-23T00:15:22;27.70;;;25.60;;
10242;SDS011;5166;48.292;16.418;2022-07-23T00:17:24;28.35;;;26.38;;
10242;SDS011;5166;48.292;16.418;2022-07-23T00:19:27;24.48;;;22.55;;
10242;SDS011;5166;48.292;16.418;2022-07-23T00:21:30;28.05;;;26.20;;
10242;SDS011;5166;48.292;16.418;2022-07-23T00:23:33;26.75;;;24.83;;
10242;SDS011;5166;48.292;16.418;2022-07-23T00:25:36;26.27;;;24.33;;
10242;SDS011;5166;48.292;16.418;2022-07-23T00:27:39;25.20;;;23.50;;
10242;SDS011;5166;48.292;16.418;2022-07-23T00:29:42;28.95;;;26.88;;
10242;SDS011;5166;48.292;16.418;2022-07-23T00:31:45;28.02;;;26.12;;
10242;SDS011;5166;48.292;16.418;2022-07-23T00:33:48;28.50;;;26.52;;
10242;SDS011;5166;48.292;16.418;2022-07-23T00:35:51;27.58;;;25.73;;
10242;SDS011;5166;48.292;16.418;2022-07-23T00:37:54;28.65;;;26.75;;
10242;SDS011;5166;48.292;16.418;2022-07-23T00:39:56;27.60;;;25.73;;
10242;SDS011;5166;48.292;16.418;2022-07-23T00:41:59;29.75;;;27.52;;
10242;SDS011;5166;48.292;16.418;2022-07-23T00:46:19;27.65;;;25.92;;
10242;SDS011;5166;48.292;16.418;2022-07-23T00:48:22;28.70;;;26.90;;
10242;SDS011;5166;48.292;16.418;2022-07-23T00:50:25;28.15;;;26.23;;
10242;SDS011;5166;48.292;16.418;2022-07-23T00:52:28;29.80;;;27.60;;
10242;SDS011;5166;48.292;16.418;2022-07-23T00:54:31;30.25;;;28.00;;
10242;SDS011;5166;48.292;16.418;2022-07-23T00:56:34;27.67;;;25.67;;
10242;SDS011;5166;48.292;16.418;2022-07-23T00:58:37;27.27;;;25.42;;
10242;SDS011;5166;48.292;16.418;2022-07-23T01:00:41;26.62;;;24.83;;
10242;SDS011;5166;48.292;16.418;2022-07-23T01:02:43;28.08;;;26.10;;
10242;SDS011;5166;48.292;16.418;2022-07-23T01:04:47;26.77;;;25.02;;
10242;SDS011;5166;48.292;16.418;2022-07-23T01:06:49;24.75;;;23.00;;
10242;SDS011;5166;48.292;16.418;2022-07-23T01:08:52;27.30;;;25.40;;
10242;SDS011;5166;48.292;16.418;2022-07-23T01:10:55;26.50;;;24.70;;
10242;SDS011;5166;48.292;16.418;2022-07-23T01:12:59;25.33;;;23.73;;
10242;SDS011;5166;48.292;16.418;2022-07-23T01:15:02;28.27;;;26.08;;
10242;SDS011;5166;48.292;16.418;2022-07-23T01:17:05;28.27;;;26.20;;
10242;SDS011;5166;48.292;16.418;2022-07-23T01:19:08;28.10;;;26.20;;
10242;SDS011;5166;48.292;16.418;2022-07-23T01:21:11;28.12;;;26.33;;
10242;SDS011;5166;48.292;16.418;2022-07-23T01:23:14;25.75;;;23.95;;
10242;SDS011;5166;48.292;16.418;2022-07-23T01:25:17;27.60;;;25.95;;
10242;SDS011;5166;48.292;16.418;2022-07-23T01:27:20;28.52;;;26.60;;
10242;SDS011;5166;48.292;16.418;2022-07-23T01:29:22;27.05;;;25.33;;
10242;SDS011;5166;48.292;16.418;2022-07-23T01:31:26;27.20;;;25.27;;
10242;SDS011;5166;48.292;16.418;2022-07-23T01:33:28;25.73;;;24.15;;
10242;SDS011;5166;48.292;16.418;2022-07-23T01:35:31;26.98;;;25.20;;
10242;SDS011;5166;48.292;16.418;2022-07-23T01:37:34;28.37;;;26.57;;
10242;SDS011;5166;48.292;16.418;2022-07-23T01:39:37;25.17;;;23.42;;
10242;SDS011;5166;48.292;16.418;2022-07-23T01:41:40;25.52;;;23.58;;
10242;SDS011;5166;48.292;16.418;2022-07-23T01:43:44;27.27;;;25.47;;
10242;SDS011;5166;48.292;16.418;2022-07-23T01:45:47;24.35;;;22.77;;
10242;SDS011;5166;48.292;16.418;2022-07-23T01:47:50;24.90;;;23.20;;
10242;SDS011;5166;48.292;16.418;2022-07-23T01:49:53;24.75;;;22.85;;
10242;SDS011;5166;48.292;16.418;2022-07-23T01:51:56;24.70;;;23.00;;
10242;SDS011;5166;48.292;16.418;2022-07-23T01:54:01;27.23;;;25.52;;
10242;SDS011;5166;48.292;16.418;2022-07-23T01:56:04;23.42;;;21.67;;
10242;SDS011;5166;48.292;16.418;2022-07-23T01:58:07;27.05;;;25.33;;
10242;SDS011;5166;48.292;16.418;2022-07-23T02:00:11;26.98;;;25.23;;
10242;SDS011;5166;48.292;16.418;2022-07-23T02:02:14;26.90;;;25.20;;
10242;SDS011;5166;48.292;16.418;2022-07-23T02:04:17;26.30;;;24.38;;
10242;SDS011;5166;48.292;16.418;2022-07-23T02:06:20;26.65;;;24.98;;
10242;SDS011;5166;48.292;16.418;2022-07-23T02:08:23;24.20;;;22.58;;
10242;SDS011;5166;48.292;16.418;2022-07-23T02:10:26;27.83;;;25.90;;
10242;SDS011;5166;48.292;16.418;2022-07-23T02:12:29;25.52;;;23.80;;
10242;SDS011;5166;48.292;16.418;2022-07-23T02:14:32;26.77;;;24.77;;
10242;SDS011;5166;48.292;16.418;2022-07-23T02:16:35;29.08;;;26.83;;
10242;SDS011;5166;48.292;16.418;2022-07-23T02:18:37;27.58;;;25.83;;
10242;SDS011;5166;48.292;16.418;2022-07-23T02:20:40;28.10;;;26.27;;
10242;SDS011;5166;48.292;16.418;2022-07-23T02:22:43;29.67;;;27.60;;
10242;SDS011;5166;48.292;16.418;2022-07-23T02:24:46;28.67;;;26.77;;
10242;SDS011;5166;48.292;16.418;2022-07-23T02:26:49;30.73;;;28.62;;
10242;SDS011;5166;48.292;16.418;2022-07-23T02:28:51;26.20;;;24.52;;
10242;SDS011;5166;48.292;16.418;2022-07-23T02:30:54;29.20;;;27.20;;
10242;SDS011;5166;48.292;16.418;2022-07-23T02:32:57;26.88;;;24.98;;
10242;SDS011;5166;48.292;16.418;2022-07-23T02:35:01;26.83;;;24.98;;
10242;SDS011;5166;48.292;16.418;2022-07-23T02:37:04;30.17;;;27.98;;
10242;SDS011;5166;48.292;16.418;2022-07-23T02:39:07;26.50;;;24.55;;
10242;SDS011;5166;48.292;16.418;2022-07-23T02:41:10;27.08;;;25.27;;
10242;SDS011;5166;48.292;16.418;2022-07-23T02:43:13;28.25;;;26.30;;
10242;SDS011;5166;48.292;16.418;2022-07-23T02:45:16;30.70;;;28.60;;
10242;SDS011;5166;48.292;16.418;2022-07-23T02:47:19;28.65;;;26.55;;
10242;SDS011;5166;48.292;16.418;2022-07-23T02:49:22;29.48;;;27.58;;
10242;SDS011;5166;48.292;16.418;2022-07-23T02:51:24;28.83;;;26.77;;
10242;SDS011;5166;48.292;16.418;2022-07-23T02:53:27;29.98;;;27.75;;
10242;SDS011;5166;48.292;16.418;2022-07-23T02:55:30;29.52;;;27.73;;
10242;SDS011;5166;48.292;16.418;2022-07-23T02:57:34;28.95;;;27.12;;
10242;SDS011;5166;48.292;16.418;2022-07-23T02:59:37;26.23;;;24.52;;
10242;SDS011;5166;48.292;16.418;2022-07-23T03:01:39;27.73;;;25.80;;
10242;SDS011;5166;48.292;16.418;2022-07-23T03:03:43;25.25;;;23.35;;
10242;SDS011;5166;48.292;16.418;2022-07-23T03:05:45;28.10;;;26.15;;
10242;SDS011;5166;48.292;16.418;2022-07-23T03:07:49;28.95;;;27.15;;
10242;SDS011;5166;48.292;16.418;2022-07-23T03:09:52;29.80;;;27.80;;
10242;SDS011;5166;48.292;16.418;2022-07-23T03:11:55;29.30;;;27.23;;
10242;SDS011;5166;48.292;16.418;2022-07-23T03:13:58;31.65;;;29.45;;
10242;SDS011;5166;48.292;16.418;2022-07-23T03:16:01;31.92;;;29.62;;
10242;SDS011;5166;48.292;16.418;2022-07-23T03:18:04;27.48;;;25.58;;
10242;SDS011;5166;48.292;16.418;2022-07-23T03:20:08;30.88;;;28.67;;
10242;SDS011;5166;48.292;16.418;2022-07-23T03:22:12;27.60;;;25.50;;
10242;SDS011;5166;48.292;16.418;2022-07-23T03:24:15;31.77;;;29.50;;
10242;SDS011;5166;48.292;16.418;2022-07-23T03:26:19;28.00;;;26.10;;
10242;SDS011;5166;48.292;16.418;2022-07-23T03:28:22;29.92;;;27.98;;
10242;SDS011;5166;48.292;16.418;2022-07-23T03:30:25;28.73;;;26.58;;
10242;SDS011;5166;48.292;16.418;2022-07-23T03:32:29;26.52;;;24.77;;
10242;SDS011;5166;48.292;16.418;2022-07-23T03:34:32;30.70;;;28.67;;
10242;SDS011;5166;48.292;16.418;2022-07-23T03:36:35;29.75;;;27.75;;
10242;SDS011;5166;48.292;16.418;2022-07-23T03:38:38;29.83;;;27.83;;
10242;SDS011;5166;48.292;16.418;2022-07-23T03:40:41;26.05;;;24.12;;
10242;SDS011;5166;48.292;16.418;2022-07-23T03:42:44;28.12;;;26.27;;
10242;SDS011;5166;48.292;16.418;2022-07-23T03:44:47;24.65;;;23.05;;
10242;SDS011;5166;48.292;16.418;2022-07-23T03:46:50;28.25;;;26.55;;
10242;SDS011;5166;48.292;16.418;2022-07-23T03:48:53;27.98;;;26.02;;
10242;SDS011;5166;48.292;16.418;2022-07-23T03:50:56;28.20;;;26.12;;
10242;SDS011;5166;48.292;16.418;2022-07-23T03:52:59;26.38;;;24.52;;
10242;SDS011;5166;48.292;16.418;2022-07-23T03:55:02;25.23;;;23.40;;
10242;SDS011;5166;48.292;16.418;2022-07-23T03:57:05;25.10;;;23.08;;
10242;SDS011;5166;48.292;16.418;2022-07-23T03:59:08;26.83;;;24.92;;
10242;SDS011;5166;48.292;16.418;2022-07-23T04:01:11;26.10;;;24.40;;
10242;SDS011;5166;48.292;16.418;2022-07-23T04:03:14;26.80;;;25.10;;
10242;SDS011;5166;48.292;16.418;2022-07-23T04:05:18;26.20;;;24.38;;
10242;SDS011;5166;48.292;16.418;2022-07-23T04:07:21;25.98;;;23.88;;
10242;SDS011;5166;48.292;16.418;2022-07-23T04:09:23;26.52;;;24.90;;
10242;SDS011;5166;48.292;16.418;2022-07-23T04:11:26;27.80;;;25.83;;
10242;SDS011;5166;48.292;16.418;2022-07-23T04:13:30;26.08;;;24.35;;
10242;SDS011;5166;48.292;16.418;2022-07-23T04:15:33;27.17;;;25.17;;
10242;SDS011;5166;48.292;16.418;2022-07-23T04:17:36;25.52;;;23.75;;
10242;SDS011;5166;48.292;16.418;2022-07-23T04:19:39;29.77;;;27.85;;
10242;SDS011;5166;48.292;16.418;2022-07-23T04:21:42;28.08;;;25.88;;
10242;SDS011;5166;48.292;16.418;2022-07-23T04:23:45;29.35;;;27.20;;
10242;SDS011;5166;48.292;16.418;2022-07-23T04:25:48;29.05;;;27.15;;
10242;SDS011;5166;48.292;16.418;2022-07-23T04:27:51;28.40;;;26.25;;
10242;SDS011;5166;48.292;16.418;2022-07-23T04:29:54;27.35;;;25.55;;
10242;SDS011;5166;48.292;16.418;2022-07-23T04:31:57;27.50;;;25.70;;
10242;SDS011;5166;48.292;16.418;2022-07-23T04:34:01;27.90;;;25.92;;
10242;SDS011;5166;48.292;16.418;2022-07-23T04:36:04;24.73;;;22.70;;
10242;SDS011;5166;48.292;16.418;2022-07-23T04:38:07;31.00;;;29.00;;
10242;SDS011;5166;48.292;16.418;2022-07-23T04:40:11;30.33;;;28.12;;
10242;SDS011;5166;48.292;16.418;2022-07-23T04:42:14;28.48;;;26.67;;
10242;SDS011;5166;48.292;16.418;2022-07-23T04:44:17;27.30;;;25.17;;
10242;SDS011;5166;48.292;16.418;2022-07-23T04:46:20;31.35;;;29.35;;
10242;SDS011;5166;48.292;16.418;2022-07-23T04:48:23;29.92;;;27.95;;
10242;SDS011;5166;48.292;16.418;2022-07-23T04:50:26;28.75;;;26.85;;
10242;SDS011;5166;48.292;16.418;2022-07-23T04:52:28;31.88;;;29.73;;
10242;SDS011;5166;48.292;16.418;2022-07-23T04:54:31;29.10;;;27.48;;
10242;SDS011;5166;48.292;16.418;2022-07-23T04:56:34;29.58;;;27.75;;
10242;SDS011;5166;48.292;16.418;2022-07-23T04:58:37;26.90;;;25.15;;
10242;SDS011;5166;48.292;16.418;2022-07-23T05:00:40;27.20;;;25.25;;
10242;SDS011;5166;48.292;16.418;2022-07-23T05:02:43;29.75;;;27.73;;
10242;SDS011;5166;48.292;16.418;2022-07-23T05:04:46;27.35;;;25.67;;
10242;SDS011;5166;48.292;16.418;2022-07-23T05:06:49;26.20;;;24.35;;
10242;SDS011;5166;48.292;16.418;2022-07-23T05:08:52;29.45;;;27.55;;
10242;SDS011;5166;48.292;16.418;2022-07-23T05:10:55;26.27;;;24.45;;
10242;SDS011;5166;48.292;16.418;2022-07-23T05:12:58;26.15;;;24.35;;
10242;SDS011;5166;48.292;16.418;2022-07-23T05:15:01;26.35;;;24.52;;
10242;SDS011;5166;48.292;16.418;2022-07-23T05:17:05;25.58;;;23.83;;
10242;SDS011;5166;48.292;16.418;2022-07-23T05:19:08;28.88;;;26.85;;
10242;SDS011;5166;48.292;16.418;2022-07-23T05:21:11;25.05;;;23.55;;
10242;SDS011;5166;48.292;16.418;2022-07-23T05:23:14;29.45;;;27.40;;
10242;SDS011;5166;48.292;16.418;2022-07-23T05:25:16;28.70;;;27.00;;
10242;SDS011;5166;48.292;16.418;2022-07-23T05:27:19;27.40;;;25.60;;
10242;SDS011;5166;48.292;16.418;2022-07-23T05:29:22;27.27;;;25.48;;
10242;SDS011;5166;48.292;16.418;2022-07-23T05:31:25;26.12;;;24.33;;
10242;SDS011;5166;48.292;16.418;2022-07-23T05:33:29;24.70;;;23.20;;
10242;SDS011;5166;48.292;16.418;2022-07-23T05:35:32;26.58;;;24.80;;
10242;SDS011;5166;48.292;16.418;2022-07-23T05:37:36;25.88;;;24.17;;
10242;SDS011;5166;48.292;16.418;2022-07-23T05:39:39;28.52;;;26.67;;
10242;SDS011;5166;48.292;16.418;2022-07-23T05:41:43;28.92;;;26.83;;
10242;SDS011;5166;48.292;16.418;2022-07-23T05:43:45;26.83;;;25.40;;
10242;SDS011;5166;48.292;16.418;2022-07-23T05:45:48;29.25;;;27.65;;
10242;SDS011;5166;48.292;16.418;2022-07-23T05:47:51;29.95;;;28.25;;
10242;SDS011;5166;48.292;16.418;2022-07-23T05:49:54;26.33;;;24.83;;
10242;SDS011;5166;48.292;16.418;2022-07-23T05:51:57;33.33;;;31.52;;
10242;SDS011;5166;48.292;16.418;2022-07-23T05:54:00;33.38;;;31.27;;
10242;SDS011;5166;48.292;16.418;2022-07-23T05:56:03;27.20;;;25.73;;
10242;SDS011;5166;48.292;16.418;2022-07-23T05:58:06;19.85;;;18.55;;
10242;SDS011;5166;48.292;16.418;2022-07-23T06:00:10;19.48;;;18.27;;
10242;SDS011;5166;48.292;16.418;2022-07-23T06:02:13;17.85;;;16.75;;
10242;SDS011;5166;48.292;16.418;2022-07-23T06:04:16;19.00;;;17.62;;
10242;SDS011;5166;48.292;16.418;2022-07-23T06:06:19;19.73;;;18.52;;
10242;SDS011;5166;48.292;16.418;2022-07-23T06:08:22;18.12;;;16.52;;
10242;SDS011;5166;48.292;16.418;2022-07-23T06:10:25;19.70;;;18.40;;
10242;SDS011;5166;48.292;16.418;2022-07-23T06:12:28;20.38;;;19.00;;
10242;SDS011;5166;48.292;16.418;2022-07-23T06:14:31;20.88;;;19.58;;
10242;SDS011;5166;48.292;16.418;2022-07-23T06:16:34;19.23;;;17.52;;
10242;SDS011;5166;48.292;16.418;2022-07-23T06:18:37;18.40;;;17.02;;
10242;SDS011;5166;48.292;16.418;2022-07-23T06:20:40;22.33;;;21.00;;
10242;SDS011;5166;48.292;16.418;2022-07-23T06:22:43;21.08;;;19.75;;
10242;SDS011;5166;48.292;16.418;2022-07-23T06:24:46;20.75;;;19.48;;
10242;SDS011;5166;48.292;16.418;2022-07-23T06:26:49;21.30;;;20.00;;
10242;SDS011;5166;48.292;16.418;2022-07-23T06:28:51;22.85;;;21.55;;
10242;SDS011;5166;48.292;16.418;2022-07-23T06:30:54;23.27;;;21.80;;
10242;SDS011;5166;48.292;16.418;2022-07-23T06:32:57;22.95;;;21.50;;
10242;SDS011;5166;48.292;16.418;2022-07-23T06:35:00;24.35;;;22.88;;
10242;SDS011;5166;48.292;16.418;2022-07-23T06:37:03;24.17;;;22.67;;
10242;SDS011;5166;48.292;16.418;2022-07-23T06:39:05;29.73;;;27.92;;
10242;SDS011;5166;48.292;16.418;2022-07-23T06:41:08;28.70;;;26.80;;
10242;SDS011;5166;48.292;16.418;2022-07-23T06:43:11;30.60;;;28.88;;
10242;SDS011;5166;48.292;16.418;2022-07-23T06:45:13;21.45;;;19.95;;
10242;SDS011;5166;48.292;16.418;2022-07-23T06:47:16;20.33;;;18.92;;
10242;SDS011;5166;48.292;16.418;2022-07-23T06:49:19;21.23;;;19.83;;
10242;SDS011;5166;48.292;16.418;2022-07-23T06:51:22;21.02;;;19.48;;
10242;SDS011;5166;48.292;16.418;2022-07-23T06:53:24;21.15;;;19.75;;
10242;SDS011;5166;48.292;16.418;2022-07-23T06:55:27;23.05;;;21.55;;
10242;SDS011;5166;48.292;16.418;2022-07-23T06:57:30;21.20;;;19.90;;
10242;SDS011;5166;48.292;16.418;2022-07-23T06:59:33;27.30;;;25.70;;
10242;SDS011;5166;48.292;16.418;2022-07-23T07:01:37;29.27;;;27.58;;
10242;SDS011;5166;48.292;16.418;2022-07-23T07:03:40;29.48;;;27.77;;
10242;SDS011;5166;48.292;16.418;2022-07-23T07:05:43;28.25;;;26.65;;
10242;SDS011;5166;48.292;16.418;2022-07-23T07:07:46;29.10;;;27.40;;
10242;SDS011;5166;48.292;16.418;2022-07-23T07:09:49;27.38;;;25.77;;
10242;SDS011;5166;48.292;16.418;2022-07-23T07:11:51;22.02;;;20.52;;
10242;SDS011;5166;48.292;16.418;2022-07-23T07:13:54;21.27;;;19.98;;
10242;SDS011;5166;48.292;16.418;2022-07-23T07:15:57;21.98;;;20.77;;
10242;SDS011;5166;48.292;16.418;2022-07-23T07:18:00;21.55;;;20.35;;
10242;SDS011;5166;48.292;16.418;2022-07-23T07:20:04;20.65;;;19.50;;
10242;SDS011;5166;48.292;16.418;2022-07-23T07:22:07;29.62;;;28.05;;
10242;SDS011;5166;48.292;16.418;2022-07-23T07:24:10;30.05;;;28.45;;
10242;SDS011;5166;48.292;16.418;2022-07-23T07:26:13;32.53;;;30.80;;
10242;SDS011;5166;48.292;16.418;2022-07-23T07:28:16;32.72;;;30.88;;
10242;SDS011;5166;48.292;16.418;2022-07-23T07:30:19;25.25;;;23.80;;
10242;SDS011;5166;48.292;16.418;2022-07-23T07:32:22;27.55;;;25.95;;
10242;SDS011;5166;48.292;16.418;2022-07-23T07:34:24;30.30;;;28.70;;
10242;SDS011;5166;48.292;16.418;2022-07-23T07:36:27;28.27;;;26.77;;
10242;SDS011;5166;48.292;16.418;2022-07-23T07:38:30;28.10;;;26.40;;
10242;SDS011;5166;48.292;16.418;2022-07-23T07:40:33;27.42;;;26.02;;
10242;SDS011;5166;48.292;16.418;2022-07-23T07:42:44;28.25;;;26.75;;
10242;SDS011;5166;48.292;16.418;2022-07-23T07:44:47;25.45;;;24.02;;
10242;SDS011;5166;48.292;16.418;2022-07-23T07:46:50;25.80;;;24.35;;
10242;SDS011;5166;48.292;16.418;2022-07-23T07:48:53;28.65;;;26.90;;
10242;SDS011;5166;48.292;16.418;2022-07-23T07:50:56;24.33;;;23.12;;
10242;SDS011;5166;48.292;16.418;2022-07-23T07:52:59;19.95;;;18.95;;
10242;SDS011;5166;48.292;16.418;2022-07-23T07:55:02;20.65;;;19.42;;
10242;SDS011;5166;48.292;16.418;2022-07-23T07:57:04;19.40;;;18.40;;
10242;SDS011;5166;48.292;16.418;2022-07-23T07:59:07;20.75;;;19.67;;
10242;SDS011;5166;48.292;16.418;2022-07-23T08:01:10;19.95;;;18.60;;
10242;SDS011;5166;48.292;16.418;2022-07-23T08:03:13;24.38;;;23.08;;
10242;SDS011;5166;48.292;16.418;2022-07-23T08:05:19;21.52;;;20.42;;
10242;SDS011;5166;48.292;16.418;2022-07-23T08:07:22;20.50;;;19.40;;
10242;SDS011;5166;48.292;16.418;2022-07-23T08:09:25;21.40;;;20.38;;
10242;SDS011;5166;48.292;16.418;2022-07-23T08:11:27;20.10;;;19.10;;
10242;SDS011;5166;48.292;16.418;2022-07-23T08:13:30;22.15;;;20.83;;
10242;SDS011;5166;48.292;16.418;2022-07-23T08:15:33;27.15;;;25.45;;
10242;SDS011;5166;48.292;16.418;2022-07-23T08:17:36;23.70;;;22.30;;
10242;SDS011;5166;48.292;16.418;2022-07-23T08:19:39;21.85;;;20.55;;
10242;SDS011;5166;48.292;16.418;2022-07-23T08:21:42;19.90;;;18.90;;
10242;SDS011;5166;48.292;16.418;2022-07-23T08:23:45;22.75;;;21.65;;
10242;SDS011;5166;48.292;16.418;2022-07-23T08:25:48;20.95;;;19.62;;
10242;SDS011;5166;48.292;16.418;2022-07-23T08:27:51;21.80;;;20.20;;
10242;SDS011;5166;48.292;16.418;2022-07-23T08:29:53;23.73;;;22.12;;
10242;SDS011;5166;48.292;16.418;2022-07-23T08:31:56;26.95;;;25.52;;
10242;SDS011;5166;48.292;16.418;2022-07-23T08:33:59;24.70;;;23.42;;
10242;SDS011;5166;48.292;16.418;2022-07-23T08:36:02;23.80;;;22.60;;
10242;SDS011;5166;48.292;16.418;2022-07-23T08:38:05;23.08;;;21.88;;
10242;SDS011;5166;48.292;16.418;2022-07-23T08:40:09;26.45;;;24.92;;
10242;SDS011;5166;48.292;16.418;2022-07-23T08:42:12;25.92;;;24.42;;
10242;SDS011;5166;48.292;16.418;2022-07-23T08:44:16;25.40;;;24.00;;
10242;SDS011;5166;48.292;16.418;2022-07-23T08:46:19;19.48;;;18.48;;
10242;SDS011;5166;48.292;16.418;2022-07-23T08:48:22;19.05;;;18.15;;
10242;SDS011;5166;48.292;16.418;2022-07-23T08:50:25;20.42;;;19.25;;
10242;SDS011;5166;48.292;16.418;2022-07-23T08:52:27;20.75;;;19.65;;
10242;SDS011;5166;48.292;16.418;2022-07-23T08:54:30;20.80;;;19.70;;
10242;SDS011;5166;48.292;16.418;2022-07-23T08:56:33;21.88;;;20.67;;
10242;SDS011;5166;48.292;16.418;2022-07-23T08:58:36;21.35;;;20.15;;
10242;SDS011;5166;48.292;16.418;2022-07-23T09:00:39;22.05;;;20.85;;
10242;SDS011;5166;48.292;16.418;2022-07-23T09:02:42;21.00;;;19.90;;
10242;SDS011;5166;48.292;16.418;2022-07-23T09:04:44;24.33;;;22.95;;
10242;SDS011;5166;48.292;16.418;2022-07-23T09:06:47;21.40;;;20.20;;
10242;SDS011;5166;48.292;16.418;2022-07-23T09:08:50;20.62;;;19.52;;
10242;SDS011;5166;48.292;16.418;2022-07-23T09:10:54;21.65;;;20.52;;
10242;SDS011;5166;48.292;16.418;2022-07-23T09:12:56;20.62;;;19.62;;
10242;SDS011;5166;48.292;16.418;2022-07-23T09:15:00;21.25;;;20.08;;
10242;SDS011;5166;48.292;16.418;2022-07-23T09:17:09;21.17;;;20.08;;
10242;SDS011;5166;48.292;16.418;2022-07-23T09:19:12;22.58;;;21.38;;
10242;SDS011;5166;48.292;16.418;2022-07-23T09:21:17;20.40;;;19.40;;
10242;SDS011;5166;48.292;16.418;2022-07-23T09:23:21;21.10;;;20.08;;
10242;SDS011;5166;48.292;16.418;2022-07-23T09:25:26;21.50;;;20.23;;
10242;SDS011;5166;48.292;16.418;2022-07-23T09:27:44;22.42;;;21.17;;
10242;SDS011;5166;48.292;16.418;2022-07-23T09:29:39;20.38;;;19.00;;
10242;SDS011;5166;48.292;16.418;2022-07-23T09:31:43;21.77;;;20.50;;
10242;SDS011;5166;48.292;16.418;2022-07-23T09:33:46;22.05;;;20.65;;
10242;SDS011;5166;48.292;16.418;2022-07-23T09:35:50;18.55;;;17.65;;
10242;SDS011;5166;48.292;16.418;2022-07-23T09:38:01;21.58;;;20.38;;
10242;SDS011;5166;48.292;16.418;2022-07-23T09:40:04;26.45;;;25.02;;
10242;SDS011;5166;48.292;16.418;2022-07-23T09:42:13;24.05;;;22.77;;
10242;SDS011;5166;48.292;16.418;2022-07-23T09:44:15;27.42;;;25.65;;
10242;SDS011;5166;48.292;16.418;2022-07-23T09:46:19;26.00;;;24.35;;
10242;SDS011;5166;48.292;16.418;2022-07-23T09:48:22;24.90;;;23.60;;
10242;SDS011;5166;48.292;16.418;2022-07-23T09:50:25;26.17;;;24.77;;
10242;SDS011;5166;48.292;16.418;2022-07-23T09:52:28;27.83;;;26.25;;
10242;SDS011;5166;48.292;16.418;2022-07-23T09:54:32;24.40;;;23.20;;
10242;SDS011;5166;48.292;16.418;2022-07-23T09:56:34;27.27;;;25.77;;
10242;SDS011;5166;48.292;16.418;2022-07-23T09:58:37;25.30;;;23.80;;
10242;SDS011;5166;48.292;16.418;2022-07-23T10:00:44;26.38;;;24.88;;
10242;SDS011;5166;48.292;16.418;2022-07-23T10:02:47;24.92;;;23.42;;
10242;SDS011;5166;48.292;16.418;2022-07-23T10:04:50;23.23;;;22.02;;
10242;SDS011;5166;48.292;16.418;2022-07-23T10:06:54;23.98;;;22.70;;
10242;SDS011;5166;48.292;16.418;2022-07-23T10:08:56;22.23;;;21.02;;
10242;SDS011;5166;48.292;16.418;2022-07-23T10:10:59;24.58;;;23.12;;
10242;SDS011;5166;48.292;16.418;2022-07-23T10:13:02;24.95;;;23.65;;
10242;SDS011;5166;48.292;16.418;2022-07-23T10:15:22;24.92;;;23.60;;
10242;SDS011;5166;48.292;16.418;2022-07-23T10:17:25;27.62;;;25.70;;
10242;SDS011;5166;48.292;16.418;2022-07-23T10:19:28;25.67;;;24.17;;
10242;SDS011;5166;48.292;16.418;2022-07-23T10:21:36;25.12;;;23.75;;
10242;SDS011;5166;48.292;16.418;2022-07-23T10:23:37;27.25;;;25.75;;
10242;SDS011;5166;48.292;16.418;2022-07-23T10:25:41;27.75;;;26.15;;
10242;SDS011;5166;48.292;16.418;2022-07-23T10:27:46;25.23;;;23.83;;
10242;SDS011;5166;48.292;16.418;2022-07-23T10:29:54;26.88;;;25.40;;
10242;SDS011;5166;48.292;16.418;2022-07-23T10:31:56;22.52;;;21.12;;
10242;SDS011;5166;48.292;16.418;2022-07-23T10:34:02;26.60;;;25.00;;
10242;SDS011;5166;48.292;16.418;2022-07-23T10:36:07;20.35;;;19.23;;
10242;SDS011;5166;48.292;16.418;2022-07-23T10:38:13;20.17;;;18.95;;
10242;SDS011;5166;48.292;16.418;2022-07-23T10:40:14;20.45;;;19.15;;
10242;SDS011;5166;48.292;16.418;2022-07-23T10:42:16;19.08;;;17.98;;
10242;SDS011;5166;48.292;16.418;2022-07-23T10:44:20;18.10;;;17.05;;
10242;SDS011;5166;48.292;16.418;2022-07-23T10:46:23;19.40;;;18.30;;
10242;SDS011;5166;48.292;16.418;2022-07-23T10:48:30;17.92;;;16.85;;
10242;SDS011;5166;48.292;16.418;2022-07-23T10:50:33;19.65;;;18.52;;
10242;SDS011;5166;48.292;16.418;2022-07-23T10:52:36;20.83;;;19.70;;
10242;SDS011;5166;48.292;16.418;2022-07-23T10:54:39;24.00;;;22.60;;
10242;SDS011;5166;48.292;16.418;2022-07-23T10:58:53;23.35;;;22.12;;
10242;SDS011;5166;48.292;16.418;2022-07-23T11:00:56;22.38;;;21.17;;
10242;SDS011;5166;48.292;16.418;2022-07-23T11:02:59;23.17;;;21.55;;
10242;SDS011;5166;48.292;16.418;2022-07-23T11:05:03;24.83;;;23.27;;
10242;SDS011;5166;48.292;16.418;2022-07-23T11:07:07;24.20;;;22.70;;
10242;SDS011;5166;48.292;16.418;2022-07-23T11:09:32;24.30;;;22.92;;
10242;SDS011;5166;48.292;16.418;2022-07-23T11:11:33;23.73;;;22.33;;
10242;SDS011;5166;48.292;16.418;2022-07-23T11:13:39;21.80;;;20.58;;
10242;SDS011;5166;48.292;16.418;2022-07-23T11:18:07;24.40;;;22.73;;
10242;SDS011;5166;48.292;16.418;2022-07-23T11:20:14;26.50;;;24.90;;
10242;SDS011;5166;48.292;16.418;2022-07-23T11:22:34;24.25;;;22.77;;
10242;SDS011;5166;48.292;16.418;2022-07-23T11:24:37;24.45;;;23.05;;
10242;SDS011;5166;48.292;16.418;2022-07-23T11:26:54;24.73;;;23.33;;
10242;SDS011;5166;48.292;16.418;2022-07-23T11:29:13;22.45;;;21.15;;
10242;SDS011;5166;48.292;16.418;2022-07-23T11:31:20;24.20;;;22.67;;
10242;SDS011;5166;48.292;16.418;2022-07-23T11:33:23;18.23;;;17.02;;
10242;SDS011;5166;48.292;16.418;2022-07-23T11:35:27;19.38;;;18.08;;
10242;SDS011;5166;48.292;16.418;2022-07-23T11:37:37;16.60;;;15.70;;
10242;SDS011;5166;48.292;16.418;2022-07-23T11:39:40;19.12;;;17.80;;
10242;SDS011;5166;48.292;16.418;2022-07-23T11:41:44;17.35;;;16.33;;
10242;SDS011;5166;48.292;16.418;2022-07-23T11:43:47;23.67;;;22.37;;
10242;SDS011;5166;48.292;16.418;2022-07-23T11:45:50;25.25;;;23.77;;
10242;SDS011;5166;48.292;16.418;2022-07-23T11:47:52;21.83;;;20.62;;
10242;SDS011;5166;48.292;16.418;2022-07-23T11:49:56;22.02;;;20.73;;
10242;SDS011;5166;48.292;16.418;2022-07-23T11:52:04;24.73;;;23.08;;
10242;SDS011;5166;48.292;16.418;2022-07-23T11:54:07;23.20;;;21.83;;
10242;SDS011;5166;48.292;16.418;2022-07-23T11:56:11;22.92;;;21.62;;
10242;SDS011;5166;48.292;16.418;2022-07-23T11:58:13;23.17;;;21.83;;
10242;SDS011;5166;48.292;16.418;2022-07-23T12:00:17;22.95;;;21.45;;
10242;SDS011;5166;48.292;16.418;2022-07-23T12:02:20;22.30;;;21.00;;
10242;SDS011;5166;48.292;16.418;2022-07-23T12:04:23;26.27;;;24.50;;
10242;SDS011;5166;48.292;16.418;2022-07-23T12:06:25;24.75;;;23.35;;
10242;SDS011;5166;48.292;16.418;2022-07-23T12:08:28;22.90;;;21.48;;